Aviation Digital Data Service (ADDS)

Output produced by TAFs form (1024 UTC 23 March 2017)
found at http://aviationweather.gov/adds/tafs/
 
KCNM 230542Z 2306/2406 15009G19KT P6SM SCT200 
     FM231200 16008G18KT P6SM BKN250 
     FM231700 22025G35KT 6SM BLDU SCT250 
     FM240100 27023G33KT P6SM SCT200